createdAt,value
2023-09-19T00:00:37.866Z,19.3
2023-09-19T00:01:36.685Z,19.3
2023-09-19T00:02:36.670Z,19.3
2023-09-19T00:03:36.816Z,19.3
2023-09-19T00:05:04.478Z,19.3
2023-09-19T00:05:36.669Z,19.3
2023-09-19T00:06:38.853Z,19.2
2023-09-19T00:07:50.676Z,19.2
2023-09-19T00:08:38.033Z,19.2
2023-09-19T00:09:41.436Z,19.2
2023-09-19T00:10:56.744Z,19.2
2023-09-19T00:11:37.806Z,19.1
2023-09-19T00:12:42.921Z,19.1
2023-09-19T00:13:38.539Z,19.1
2023-09-19T00:14:36.809Z,19.1
2023-09-19T00:15:36.595Z,19.1
2023-09-19T00:16:36.704Z,19
2023-09-19T00:17:36.773Z,19
2023-09-19T00:18:43.690Z,19
2023-09-19T00:19:37.678Z,19
2023-09-19T00:20:36.736Z,19
2023-09-19T00:21:37.777Z,19
2023-09-19T00:22:45.979Z,18.9
2023-09-19T00:24:28.906Z,18.9
2023-09-19T00:24:38.294Z,18.8
2023-09-19T00:25:51.164Z,18.8
2023-09-19T00:26:53.971Z,18.8
2023-09-19T00:28:41.462Z,18.7
2023-09-19T00:29:38.027Z,18.7
2023-09-19T00:30:36.646Z,18.7
2023-09-19T00:31:36.806Z,18.7
2023-09-19T00:32:36.733Z,18.7
2023-09-19T00:33:36.689Z,18.8
2023-09-19T00:34:41.606Z,18.7
2023-09-19T00:36:03.508Z,18.7
2023-09-19T00:36:36.776Z,18.7
2023-09-19T00:37:38.206Z,18.7
2023-09-19T00:38:50.283Z,18.7
2023-09-19T00:39:36.698Z,18.7
2023-09-19T00:40:03.550Z,18.7
2023-09-19T00:40:37.767Z,18.6
2023-09-19T00:41:36.816Z,18.6
2023-09-19T00:42:46.864Z,18.6
2023-09-19T00:43:39.247Z,18.5
2023-09-19T00:44:43.948Z,18.5
2023-09-19T00:45:39.320Z,18.4
2023-09-19T00:46:40.199Z,18.4
2023-09-19T00:47:43.054Z,18.4
2023-09-19T00:48:29.689Z,18.4
2023-09-19T00:49:38.718Z,18.3
2023-09-19T00:50:49.068Z,18.3
2023-09-19T00:52:08.145Z,18.3
2023-09-19T00:52:36.908Z,18.3
2023-09-19T00:53:36.840Z,18.3
2023-09-19T00:54:36.641Z,18.2
2023-09-19T00:55:58.706Z,18.2
2023-09-19T00:56:38.079Z,18.2
2023-09-19T00:57:09.271Z,18.2
2023-09-19T00:58:36.990Z,18.2
2023-09-19T00:59:38.105Z,18.2
2023-09-19T01:00:40.971Z,18.1
2023-09-19T01:01:38.081Z,18.1
2023-09-19T01:02:36.854Z,18.1
2023-09-19T01:03:38.382Z,18.1
2023-09-19T01:04:36.947Z,18.1
2023-09-19T01:06:11.696Z,18
2023-09-19T01:06:39.791Z,18
2023-09-19T01:07:36.847Z,18
2023-09-19T01:08:36.778Z,18
2023-09-19T01:09:39.719Z,18
2023-09-19T01:10:36.716Z,17.9
2023-09-19T01:11:53.389Z,17.9
2023-09-19T01:12:42.011Z,17.9
2023-09-19T01:13:37.168Z,17.9
2023-09-19T01:14:36.744Z,17.9
2023-09-19T01:15:37.833Z,17.8
2023-09-19T01:16:39.410Z,17.8
2023-09-19T01:18:44.082Z,17.8
2023-09-19T01:19:37.956Z,17.8
2023-09-19T01:20:44.185Z,17.8
2023-09-19T01:21:40.546Z,17.8
2023-09-19T01:22:43.655Z,17.9
2023-09-19T01:23:37.786Z,17.9
2023-09-19T01:24:36.667Z,17.9
2023-09-19T01:25:43.848Z,18
2023-09-19T01:26:42.865Z,18
2023-09-19T01:28:36.854Z,18.1
2023-09-19T01:29:37.932Z,18.2
2023-09-19T01:30:18.292Z,18.2
2023-09-19T01:31:36.610Z,18.2
2023-09-19T01:32:41.565Z,18.2
2023-09-19T01:33:37.917Z,18.3
2023-09-19T01:34:37.857Z,18.3
2023-09-19T01:34:43.819Z,18.3
2023-09-19T01:36:41.914Z,18.4
2023-09-19T01:37:36.806Z,18.5
2023-09-19T01:38:38.461Z,18.6
2023-09-19T01:39:37.283Z,18.6
2023-09-19T01:40:41.145Z,18.7
2023-09-19T01:41:36.526Z,18.7
2023-09-19T01:42:41.193Z,18.8
2023-09-19T01:43:46.779Z,18.9
2023-09-19T01:44:36.862Z,18.9
2023-09-19T01:45:47.217Z,18.9
2023-09-19T01:46:36.699Z,18.8
2023-09-19T01:47:36.608Z,18.8
2023-09-19T01:48:38.039Z,18.8
2023-09-19T01:49:39.045Z,18.8
2023-09-19T01:50:37.852Z,18.8
2023-09-19T01:51:41.494Z,18.8
2023-09-19T01:52:36.542Z,18.8
2023-09-19T01:53:36.557Z,18.8
2023-09-19T01:54:36.487Z,18.7
2023-09-19T01:55:36.590Z,18.7
2023-09-19T01:56:36.576Z,18.7
2023-09-19T01:57:36.442Z,18.7
2023-09-19T01:58:36.608Z,18.7
2023-09-19T01:59:36.613Z,18.7
2023-09-19T02:00:36.588Z,18.7
2023-09-19T02:01:36.713Z,18.7
2023-09-19T02:02:36.667Z,18.7
2023-09-19T02:03:36.651Z,18.6
2023-09-19T02:04:36.726Z,18.5
2023-09-19T02:05:36.528Z,18.5
2023-09-19T02:06:36.722Z,18.4
2023-09-19T02:07:37.819Z,18.4
2023-09-19T02:09:36.506Z,18.3
2023-09-19T02:10:36.551Z,18.3
2023-09-19T02:11:36.653Z,18.3
2023-09-19T02:12:36.630Z,18.2
2023-09-19T02:13:36.630Z,18.2
2023-09-19T02:14:36.493Z,18.2
2023-09-19T02:15:36.597Z,18.1
2023-09-19T02:16:36.528Z,18.1
2023-09-19T02:17:36.561Z,18.1
2023-09-19T02:18:36.507Z,18.1
2023-09-19T02:19:36.541Z,18.1
2023-09-19T02:20:36.540Z,18.1
2023-09-19T02:21:36.635Z,18.1
2023-09-19T02:22:36.553Z,18.1
2023-09-19T02:23:36.453Z,18.1
2023-09-19T02:24:36.496Z,18
2023-09-19T02:25:36.555Z,18
2023-09-19T02:26:36.487Z,18
2023-09-19T02:27:36.511Z,18
2023-09-19T02:28:36.563Z,18
2023-09-19T02:29:36.496Z,18
2023-09-19T02:30:36.502Z,18
2023-09-19T02:31:36.536Z,18
2023-09-19T02:32:36.492Z,18
2023-09-19T02:33:36.508Z,18
2023-09-19T02:34:36.645Z,18
2023-09-19T02:35:36.764Z,18
2023-09-19T02:36:36.482Z,18
2023-09-19T02:37:36.601Z,18
2023-09-19T02:39:36.467Z,18
2023-09-19T02:40:36.522Z,18
2023-09-19T02:41:36.489Z,18
2023-09-19T02:42:36.456Z,18
2023-09-19T02:43:36.548Z,17.9
2023-09-19T02:44:36.490Z,17.9
2023-09-19T02:45:36.425Z,17.9
2023-09-19T02:46:36.597Z,17.9
2023-09-19T02:47:36.505Z,17.8
2023-09-19T02:49:36.504Z,17.8
2023-09-19T02:50:36.692Z,17.8
2023-09-19T02:51:36.577Z,17.8
2023-09-19T02:52:36.678Z,17.8
2023-09-19T02:53:38.530Z,17.8
2023-09-19T02:54:36.555Z,17.7
2023-09-19T02:55:36.602Z,17.7
2023-09-19T02:56:36.565Z,17.7
2023-09-19T02:57:36.439Z,17.6
2023-09-19T02:58:38.040Z,17.6
2023-09-19T02:59:36.514Z,17.6
2023-09-19T03:00:42.311Z,17.5
2023-09-19T03:01:37.063Z,17.5
2023-09-19T03:02:46.993Z,17.5
2023-09-19T03:03:36.571Z,17.5
2023-09-19T03:04:36.625Z,17.5
2023-09-19T03:05:37.646Z,17.5
2023-09-19T03:06:36.526Z,17.5
2023-09-19T03:07:37.178Z,17.5
2023-09-19T03:08:36.814Z,17.5
2023-09-19T03:09:36.589Z,17.4
2023-09-19T03:10:36.668Z,17.4
2023-09-19T03:11:36.490Z,17.4
2023-09-19T03:12:36.630Z,17.4
2023-09-19T03:13:36.822Z,17.3
2023-09-19T03:14:36.604Z,17.3
2023-09-19T03:15:36.807Z,17.2
2023-09-19T03:16:36.576Z,17.3
2023-09-19T03:19:10.808Z,17.3
2023-09-19T03:19:36.694Z,17.3
2023-09-19T03:20:38.582Z,17.3
2023-09-19T03:21:36.563Z,17.2
2023-09-19T03:22:36.548Z,17.2
2023-09-19T03:23:36.544Z,17.1
2023-09-19T03:24:36.445Z,17.1
2023-09-19T03:25:36.532Z,17.1
2023-09-19T03:26:36.528Z,17
2023-09-19T03:27:36.550Z,17
2023-09-19T03:29:36.553Z,17
2023-09-19T03:30:36.518Z,17
2023-09-19T03:31:36.617Z,16.9
2023-09-19T03:32:36.579Z,16.9
2023-09-19T03:33:36.429Z,16.9
2023-09-19T03:34:36.583Z,16.8
2023-09-19T03:35:36.569Z,16.8
2023-09-19T03:36:36.478Z,16.8
2023-09-19T03:37:36.645Z,16.7
2023-09-19T03:38:37.894Z,16.7
2023-09-19T03:39:36.490Z,16.7
2023-09-19T03:40:36.506Z,16.6
2023-09-19T03:41:36.497Z,16.6
2023-09-19T03:42:36.463Z,16.6
2023-09-19T03:43:36.460Z,16.6
2023-09-19T03:44:36.463Z,16.5
2023-09-19T03:45:36.448Z,16.5
2023-09-19T03:46:36.482Z,16.5
2023-09-19T03:47:37.549Z,16.5
2023-09-19T03:48:36.435Z,16.5
2023-09-19T03:49:36.744Z,16.4
2023-09-19T03:50:36.472Z,16.4
2023-09-19T03:51:36.396Z,16.4
2023-09-19T03:52:36.431Z,16.4
2023-09-19T03:53:36.428Z,16.4
2023-09-19T03:54:36.354Z,16.3
2023-09-19T03:55:36.413Z,16.3
2023-09-19T03:56:36.387Z,16.3
2023-09-19T03:57:36.388Z,16.3
2023-09-19T03:58:36.447Z,16.3
2023-09-19T03:59:36.416Z,16.3
2023-09-19T04:00:37.722Z,16.3
2023-09-19T04:01:36.430Z,16.3
2023-09-19T04:02:36.363Z,16.3
2023-09-19T04:03:36.954Z,16.3
2023-09-19T04:04:36.562Z,16.3
2023-09-19T04:05:36.457Z,16.3
2023-09-19T04:06:40.762Z,16.3
2023-09-19T04:07:36.446Z,16.3
2023-09-19T04:08:36.356Z,16.3
2023-09-19T04:09:36.437Z,16.3
2023-09-19T04:10:36.360Z,16.3
2023-09-19T04:11:36.405Z,16.3
2023-09-19T04:12:36.401Z,16.3
2023-09-19T04:13:36.362Z,16.3
2023-09-19T04:14:36.360Z,16.3
2023-09-19T04:15:36.362Z,16.4
2023-09-19T04:16:36.494Z,16.4
2023-09-19T04:17:37.597Z,16.5
2023-09-19T04:19:36.352Z,16.6
2023-09-19T04:20:42.043Z,16.6
2023-09-19T04:21:36.374Z,16.6
2023-09-19T04:22:36.381Z,16.6
2023-09-19T04:23:36.387Z,16.6
2023-09-19T04:24:36.409Z,16.6
2023-09-19T04:25:36.450Z,16.6
2023-09-19T04:26:36.472Z,16.6
2023-09-19T04:27:36.441Z,16.6
2023-09-19T04:28:36.467Z,16.6
2023-09-19T04:29:36.446Z,16.6
2023-09-19T04:30:36.450Z,16.6
2023-09-19T04:31:36.386Z,16.6
2023-09-19T04:32:36.451Z,16.6
2023-09-19T04:33:36.583Z,16.5
2023-09-19T04:34:36.584Z,16.5
2023-09-19T04:35:36.368Z,16.4
2023-09-19T04:36:36.657Z,16.4
2023-09-19T04:37:36.452Z,16.4
2023-09-19T04:38:36.552Z,16.4
2023-09-19T04:39:36.440Z,16.4
2023-09-19T04:40:36.380Z,16.3
2023-09-19T04:41:36.357Z,16.3
2023-09-19T04:42:36.400Z,16.3
2023-09-19T04:43:36.371Z,16.2
2023-09-19T04:44:36.379Z,16.2
2023-09-19T04:45:36.324Z,16.1
2023-09-19T04:46:36.381Z,16.1
2023-09-19T04:47:36.420Z,16.1
2023-09-19T04:48:36.378Z,16.1
2023-09-19T04:49:36.345Z,16.1
2023-09-19T04:50:36.396Z,16.1
2023-09-19T04:51:36.374Z,16.1
2023-09-19T04:52:36.324Z,16
2023-09-19T04:53:36.358Z,16.1
2023-09-19T04:54:36.512Z,16.1
2023-09-19T04:55:36.391Z,16.1
2023-09-19T04:56:36.382Z,16.1
2023-09-19T04:57:36.443Z,16.1
2023-09-19T04:59:36.299Z,16.1
2023-09-19T05:00:36.499Z,16.1
2023-09-19T05:01:37.430Z,16.1
2023-09-19T05:02:36.389Z,16.1
2023-09-19T05:03:36.464Z,16.1
2023-09-19T05:04:36.489Z,16.1
2023-09-19T05:05:36.880Z,16.1
2023-09-19T05:06:36.555Z,16.1
2023-09-19T05:07:36.336Z,16.1
2023-09-19T05:08:36.356Z,16.1
2023-09-19T05:09:36.379Z,16.1
2023-09-19T05:10:36.521Z,16.2
2023-09-19T05:11:36.373Z,16.2
2023-09-19T05:12:40.615Z,16.1
2023-09-19T05:13:36.612Z,16.1
2023-09-19T05:14:36.392Z,16.1
2023-09-19T05:15:36.372Z,16.1
2023-09-19T05:17:17.723Z,16
2023-09-19T05:17:38.052Z,16
2023-09-19T05:18:36.349Z,16
2023-09-19T05:19:36.439Z,16
2023-09-19T05:20:36.583Z,16.1
2023-09-19T05:21:36.545Z,16
2023-09-19T05:22:36.424Z,15.9
2023-09-19T05:23:53.923Z,15.9
2023-09-19T05:25:13.449Z,15.8
2023-09-19T05:29:17.250Z,15.7
2023-09-19T05:29:54.608Z,15.7
2023-09-19T05:36:23.698Z,15.5
2023-09-19T05:38:29.049Z,15.5
2023-09-19T05:57:57.815Z,15.2
2023-09-19T06:02:53.476Z,15.2
2023-09-19T06:03:36.247Z,15.2
2023-09-19T06:04:37.341Z,15.2
2023-09-19T06:05:36.423Z,15.2
2023-09-19T06:06:37.332Z,15.2
2023-09-19T06:07:37.770Z,15.2
2023-09-19T06:08:36.490Z,15.2
2023-09-19T06:09:37.391Z,15.2
2023-09-19T06:10:37.506Z,15.2
2023-09-19T06:11:36.355Z,15.2
2023-09-19T06:12:36.264Z,15.3
2023-09-19T06:13:36.258Z,15.4
2023-09-19T06:14:36.226Z,15.4
2023-09-19T06:15:36.170Z,15.4
2023-09-19T06:16:36.253Z,15.5
2023-09-19T06:17:36.228Z,15.5
2023-09-19T06:18:36.237Z,15.5
2023-09-19T06:19:36.225Z,15.5
2023-09-19T06:20:36.745Z,15.5
2023-09-19T06:21:36.203Z,15.5
2023-09-19T06:22:37.632Z,15.4
2023-09-19T06:23:36.209Z,15.4
2023-09-19T06:24:40.664Z,15.3
2023-09-19T06:25:36.191Z,15.3
2023-09-19T06:26:36.226Z,15.3
2023-09-19T06:27:37.226Z,15.2
2023-09-19T06:29:36.204Z,15.2
2023-09-19T06:30:36.153Z,15.1
2023-09-19T06:31:37.502Z,15.1
2023-09-19T06:32:36.691Z,15.1
2023-09-19T06:33:36.505Z,15.1
2023-09-19T06:34:36.259Z,15.1
2023-09-19T06:35:36.309Z,15.1
2023-09-19T06:36:36.256Z,15.1
2023-09-19T06:37:36.384Z,15.1
2023-09-19T06:38:37.532Z,15.1
2023-09-19T06:39:36.549Z,15.1
2023-09-19T06:40:37.687Z,15.1
2023-09-19T06:41:36.198Z,15.1
2023-09-19T06:42:36.235Z,15.1
2023-09-19T06:43:36.236Z,15.2
2023-09-19T06:44:36.297Z,15.2
2023-09-19T06:45:36.183Z,15.2
2023-09-19T06:46:36.322Z,15.2
2023-09-19T06:47:36.390Z,15.2
2023-09-19T06:49:36.307Z,15.3
2023-09-19T06:50:36.194Z,15.3
2023-09-19T06:51:37.850Z,15.3
2023-09-19T06:52:36.401Z,15.3
2023-09-19T06:53:36.341Z,15.2
2023-09-19T06:54:36.204Z,15.2
2023-09-19T06:55:36.287Z,15.2
2023-09-19T06:56:36.224Z,15.2
2023-09-19T06:57:36.211Z,15.3
2023-09-19T06:58:36.373Z,15.3
2023-09-19T06:59:36.211Z,15.3
2023-09-19T07:00:36.274Z,15.2
2023-09-19T07:01:36.355Z,15.2
2023-09-19T07:02:36.248Z,15.2
2023-09-19T07:03:50.429Z,15.2
2023-09-19T07:04:36.295Z,15.2
2023-09-19T07:05:40.118Z,15.2
2023-09-19T07:06:36.320Z,15.2
2023-09-19T07:07:36.360Z,15.2
2023-09-19T07:08:38.717Z,15.2
2023-09-19T07:09:36.735Z,15.2
2023-09-19T07:10:40.466Z,15.1
2023-09-19T07:11:37.582Z,15.1
2023-09-19T07:12:38.013Z,15.1
2023-09-19T07:13:36.421Z,15.1
2023-09-19T07:14:36.432Z,15
2023-09-19T07:15:37.644Z,15.1
2023-09-19T07:16:36.374Z,15.1
2023-09-19T07:17:36.323Z,15.1
2023-09-19T07:18:36.354Z,15
2023-09-19T07:19:36.419Z,15
2023-09-19T07:20:36.511Z,15
2023-09-19T07:21:36.281Z,15
2023-09-19T07:22:49.090Z,14.9
2023-09-19T07:23:36.679Z,14.9
2023-09-19T07:24:36.154Z,14.9
2023-09-19T07:25:36.620Z,14.9
2023-09-19T07:26:36.165Z,14.9
2023-09-19T07:27:36.460Z,14.8
2023-09-19T07:28:36.439Z,14.8
2023-09-19T07:30:36.456Z,14.8
2023-09-19T07:31:38.008Z,14.9
2023-09-19T07:32:36.234Z,14.9
2023-09-19T07:33:36.300Z,14.8
2023-09-19T07:34:36.613Z,14.8
2023-09-19T07:35:36.180Z,14.7
2023-09-19T07:36:36.299Z,14.7
2023-09-19T07:37:36.187Z,14.7
2023-09-19T07:38:36.162Z,14.7
2023-09-19T07:40:38.174Z,14.6
2023-09-19T07:41:36.478Z,14.6
2023-09-19T07:42:38.259Z,14.6
2023-09-19T07:43:38.483Z,14.6
2023-09-19T07:44:37.269Z,14.6
2023-09-19T07:45:37.282Z,14.6
2023-09-19T07:46:36.200Z,14.6
2023-09-19T07:47:36.122Z,14.6
2023-09-19T07:48:36.223Z,14.7
2023-09-19T07:50:36.105Z,14.6
2023-09-19T07:51:37.520Z,14.6
2023-09-19T07:52:36.545Z,14.6
2023-09-19T07:53:36.283Z,14.6
2023-09-19T07:54:36.203Z,14.5
2023-09-19T07:55:36.110Z,14.5
2023-09-19T07:56:36.719Z,14.4
2023-09-19T07:57:36.716Z,14.4
2023-09-19T07:58:37.598Z,14.4
2023-09-19T07:59:36.119Z,14.4
2023-09-19T08:00:36.265Z,14.4
2023-09-19T08:01:38.811Z,14.4
2023-09-19T08:03:36.166Z,14.4
2023-09-19T08:04:36.389Z,14.5
2023-09-19T08:05:36.242Z,14.6
2023-09-19T08:06:36.066Z,14.6
2023-09-19T08:07:36.084Z,14.6
2023-09-19T08:08:36.077Z,14.6
2023-09-19T08:09:36.107Z,14.4
2023-09-19T08:10:36.141Z,14.4
2023-09-19T08:11:36.188Z,14.4
2023-09-19T08:12:36.153Z,14.3
2023-09-19T08:13:36.066Z,14.3
2023-09-19T08:14:36.053Z,14.3
2023-09-19T08:15:39.565Z,14.3
2023-09-19T08:16:36.510Z,14.3
2023-09-19T08:17:36.363Z,14.3
2023-09-19T08:18:36.119Z,14.3
2023-09-19T08:19:36.202Z,14.3
2023-09-19T08:20:36.377Z,14.3
2023-09-19T08:21:36.125Z,14.3
2023-09-19T08:22:36.091Z,14.3
2023-09-19T08:23:37.163Z,14.4
2023-09-19T08:24:36.115Z,14.4
2023-09-19T08:25:36.120Z,14.4
2023-09-19T08:26:36.156Z,14.5
2023-09-19T08:27:36.756Z,14.4
2023-09-19T08:28:37.294Z,14.4
2023-09-19T08:29:36.082Z,14.4
2023-09-19T08:30:36.041Z,14.4
2023-09-19T08:31:36.095Z,14.3
2023-09-19T08:32:36.135Z,14.3
2023-09-19T08:33:36.029Z,14.3
2023-09-19T08:34:36.115Z,14.3
2023-09-19T08:35:36.071Z,14.3
2023-09-19T08:36:36.047Z,14.3
2023-09-19T08:37:40.619Z,14.3
2023-09-19T08:38:36.089Z,14.3
2023-09-19T08:40:08.566Z,14.3
2023-09-19T08:40:38.176Z,14.2
2023-09-19T08:41:53.911Z,14.2
2023-09-19T08:42:36.158Z,14.2
2023-09-19T08:43:36.588Z,14.2
2023-09-19T08:44:36.052Z,14.2
2023-09-19T08:45:36.708Z,14.2
2023-09-19T08:46:36.116Z,14.2
2023-09-19T08:47:36.184Z,14.2
2023-09-19T08:48:36.055Z,14.2
2023-09-19T08:49:36.094Z,14.2
2023-09-19T08:50:37.356Z,14.2
2023-09-19T08:51:35.976Z,14.2
2023-09-19T08:52:36.154Z,14.2
2023-09-19T08:53:36.069Z,14.2
2023-09-19T08:54:36.052Z,14.2
2023-09-19T08:55:36.152Z,14.2
2023-09-19T08:56:36.086Z,14.2
2023-09-19T08:57:36.083Z,14.2
2023-09-19T08:58:36.066Z,14.2
2023-09-19T08:59:36.365Z,14.2
2023-09-19T09:00:36.117Z,14.2
2023-09-19T09:01:36.099Z,14.2
2023-09-19T09:02:36.094Z,14.2
2023-09-19T09:03:36.120Z,14.2
2023-09-19T09:04:37.193Z,14.2
2023-09-19T09:05:36.088Z,14.2
2023-09-19T09:06:36.075Z,14.3
2023-09-19T09:07:36.115Z,14.3
2023-09-19T09:08:36.028Z,14.2
2023-09-19T09:09:36.039Z,14.2
2023-09-19T09:10:36.052Z,14.2
2023-09-19T09:11:36.290Z,14.2
2023-09-19T09:12:36.056Z,14.2
2023-09-19T09:13:38.971Z,14.3
2023-09-19T09:14:36.075Z,14.3
2023-09-19T09:15:36.009Z,14.4
2023-09-19T09:16:36.663Z,14.4
2023-09-19T09:17:36.087Z,14.4
2023-09-19T09:18:36.032Z,14.4
2023-09-19T09:20:36.346Z,14.4
2023-09-19T09:21:36.296Z,14.4
2023-09-19T09:22:36.216Z,14.4
2023-09-19T09:23:35.979Z,14.4
2023-09-19T09:24:35.965Z,14.4
2023-09-19T09:25:36.055Z,14.4
2023-09-19T09:26:36.015Z,14.4
2023-09-19T09:27:35.992Z,14.4
2023-09-19T09:28:35.977Z,14.4
2023-09-19T09:29:36.026Z,14.4
2023-09-19T09:30:36.026Z,14.3
2023-09-19T09:31:36.039Z,14.3
2023-09-19T09:32:36.298Z,14.3
2023-09-19T09:33:36.032Z,14.3
2023-09-19T09:34:36.013Z,14.2
2023-09-19T09:35:36.008Z,14.2
2023-09-19T09:36:36.072Z,14.2
2023-09-19T09:37:35.994Z,14.1
2023-09-19T09:38:35.966Z,14.1
2023-09-19T09:39:36.269Z,14.1
2023-09-19T09:40:36.014Z,14.1
2023-09-19T09:41:36.114Z,14
2023-09-19T09:42:35.983Z,14
2023-09-19T09:43:36.093Z,14
2023-09-19T09:44:36.012Z,14
2023-09-19T09:45:36.013Z,14
2023-09-19T09:46:36.806Z,14
2023-09-19T09:47:36.048Z,14.1
2023-09-19T09:48:35.997Z,14.1
2023-09-19T09:49:35.973Z,14.1
2023-09-19T09:50:36.076Z,14
2023-09-19T09:51:36.210Z,14
2023-09-19T09:52:35.971Z,13.9
2023-09-19T09:53:35.987Z,13.9
2023-09-19T09:54:41.749Z,13.9
2023-09-19T09:55:37.838Z,13.9
2023-09-19T09:56:36.141Z,13.9
2023-09-19T09:57:37.273Z,13.9
2023-09-19T09:58:36.109Z,13.9
2023-09-19T09:59:35.938Z,13.8
2023-09-19T10:00:35.984Z,13.9
2023-09-19T10:01:37.490Z,13.9
2023-09-19T10:02:36.386Z,13.9
2023-09-19T10:03:36.763Z,14
2023-09-19T10:04:36.543Z,14
2023-09-19T10:05:36.041Z,13.9
2023-09-19T10:06:35.964Z,13.9
2023-09-19T10:07:36.539Z,13.9
2023-09-19T10:08:36.119Z,13.8
2023-09-19T10:09:36.049Z,13.8
2023-09-19T10:25:47.802Z,13.6
2023-09-19T10:26:35.955Z,13.6
2023-09-19T10:27:37.038Z,13.6
2023-09-19T10:28:40.390Z,13.7
2023-09-19T10:29:35.994Z,13.7
2023-09-19T10:33:41.830Z,13.6
2023-09-19T10:34:35.890Z,13.7
2023-09-19T10:35:37.292Z,13.7
2023-09-19T10:36:36.247Z,13.7
2023-09-19T10:37:35.952Z,13.6
2023-09-19T10:38:36.177Z,13.6
2023-09-19T10:39:42.414Z,13.6
2023-09-19T10:40:55.368Z,13.6
2023-09-19T10:41:57.542Z,13.6
2023-09-19T10:42:36.227Z,13.6
2023-09-19T10:43:37.102Z,13.6
2023-09-19T10:44:35.943Z,13.6
2023-09-19T10:45:35.873Z,13.6
2023-09-19T10:46:35.982Z,13.6
2023-09-19T10:47:35.897Z,13.6
2023-09-19T10:48:38.934Z,13.7
2023-09-19T10:50:36.170Z,13.7
2023-09-19T10:51:36.167Z,13.7
2023-09-19T10:52:36.301Z,13.7
2023-09-19T10:56:23.777Z,13.6
2023-09-19T10:56:37.213Z,13.6
2023-09-19T10:57:37.368Z,13.6
2023-09-19T10:58:24.294Z,13.6
2023-09-19T10:58:39.448Z,13.6
2023-09-19T10:59:38.171Z,13.7
2023-09-19T11:00:38.069Z,13.7
2023-09-19T11:01:51.205Z,13.7
2023-09-19T11:02:42.332Z,13.7
2023-09-19T11:03:44.774Z,13.7
2023-09-19T11:07:43.923Z,13.6
2023-09-19T11:09:05.719Z,13.6
2023-09-19T11:09:36.941Z,13.6
2023-09-19T11:10:43.962Z,13.6
2023-09-19T11:13:19.852Z,13.6
2023-09-19T11:22:02.863Z,13.6
2023-09-19T11:23:02.391Z,13.6
2023-09-19T11:23:36.307Z,13.6
2023-09-19T11:24:35.877Z,13.7
2023-09-19T11:25:39.046Z,13.7
2023-09-19T11:26:39.912Z,13.7
2023-09-19T11:27:37.177Z,13.7
2023-09-19T11:28:36.763Z,13.7
2023-09-19T11:29:37.679Z,13.6
2023-09-19T11:30:36.195Z,13.6
2023-09-19T11:31:07.627Z,13.6
2023-09-19T11:31:37.293Z,13.7
2023-09-19T11:36:59.265Z,13.7
2023-09-19T11:37:36.671Z,13.7
2023-09-19T11:38:52.580Z,13.8
2023-09-19T11:43:35.212Z,13.8
2023-09-19T11:43:36.122Z,13.8
2023-09-19T11:44:35.930Z,13.8
2023-09-19T11:45:36.403Z,13.9
2023-09-19T11:46:36.049Z,13.9
2023-09-19T11:47:35.871Z,13.9
2023-09-19T11:48:36.138Z,13.9
2023-09-19T11:49:39.611Z,14
2023-09-19T11:50:35.775Z,14
2023-09-19T11:51:35.918Z,14
2023-09-19T11:52:35.935Z,14.1
2023-09-19T11:53:36.182Z,14.1
2023-09-19T11:54:35.827Z,14.1
2023-09-19T11:55:36.589Z,14.2
2023-09-19T11:56:36.028Z,14.2
2023-09-19T11:57:37.325Z,14.3
2023-09-19T11:58:35.854Z,14.5
2023-09-19T11:59:37.399Z,14.5
2023-09-19T12:00:05.596Z,14.5
2023-09-19T12:00:37.273Z,14.6
2023-09-19T12:01:36.241Z,14.6
2023-09-19T12:02:35.878Z,14.7
2023-09-19T12:03:35.851Z,14.7
2023-09-19T12:04:35.925Z,14.7
2023-09-19T12:05:35.901Z,14.7
2023-09-19T12:06:35.823Z,14.8
2023-09-19T12:07:36.963Z,14.8
2023-09-19T12:08:35.743Z,14.8
2023-09-19T12:09:35.809Z,14.8
2023-09-19T12:10:36.056Z,14.8
2023-09-19T12:11:35.752Z,14.8
2023-09-19T12:12:37.261Z,14.9
2023-09-19T12:13:35.889Z,14.9
2023-09-19T12:14:36.787Z,14.9
2023-09-19T12:15:35.850Z,14.9
2023-09-19T12:16:35.748Z,15
2023-09-19T12:17:35.805Z,15
2023-09-19T12:18:37.397Z,15.1
2023-09-19T12:19:35.801Z,15.1
2023-09-19T12:20:35.713Z,15.2
2023-09-19T12:21:35.754Z,15.2
2023-09-19T12:22:35.775Z,15.2
2023-09-19T12:23:35.815Z,15.3
2023-09-19T12:24:36.017Z,15.3
2023-09-19T12:25:35.839Z,15.4
2023-09-19T12:26:36.128Z,15.4
2023-09-19T12:27:35.787Z,15.4
2023-09-19T12:28:37.689Z,15.4
2023-09-19T12:29:37.078Z,15.5
2023-09-19T12:30:39.125Z,15.5
2023-09-19T12:31:36.071Z,15.6
2023-09-19T12:32:36.198Z,15.6
2023-09-19T12:33:36.819Z,15.6
2023-09-19T12:34:36.934Z,15.7
2023-09-19T12:35:37.066Z,15.8
2023-09-19T12:36:36.185Z,15.8
2023-09-19T12:37:36.619Z,15.9
2023-09-19T12:38:37.596Z,15.9
2023-09-19T12:40:43.140Z,16
2023-09-19T12:41:35.741Z,16
2023-09-19T12:42:36.496Z,16.1
2023-09-19T12:43:35.826Z,16.1
2023-09-19T12:44:35.690Z,16.1
2023-09-19T12:45:36.978Z,16.2
2023-09-19T12:46:36.924Z,16.2
2023-09-19T12:47:35.783Z,16.3
2023-09-19T12:48:35.940Z,16.4
2023-09-19T12:50:35.747Z,16.5
2023-09-19T12:51:35.696Z,16.5
2023-09-19T12:52:35.713Z,16.6
2023-09-19T12:53:35.742Z,16.8
2023-09-19T12:54:35.951Z,16.9
2023-09-19T12:55:35.871Z,16.9
2023-09-19T12:56:35.715Z,17
2023-09-19T12:57:38.381Z,17
2023-09-19T12:58:35.509Z,17
2023-09-19T12:59:40.708Z,17.2
2023-09-19T13:00:36.796Z,17.3
2023-09-19T13:01:40.411Z,17.3
2023-09-19T13:02:37.184Z,17.4
2023-09-19T13:03:37.529Z,17.5
2023-09-19T13:04:37.080Z,17.5
2023-09-19T13:05:37.359Z,17.6
2023-09-19T13:06:37.144Z,17.6
2023-09-19T13:07:36.177Z,17.8
2023-09-19T13:08:35.694Z,17.8
2023-09-19T13:09:36.947Z,17.8
2023-09-19T13:10:36.053Z,17.8
2023-09-19T13:11:36.770Z,17.8
2023-09-19T13:12:35.824Z,17.8
2023-09-19T13:13:35.760Z,17.9
2023-09-19T13:14:36.926Z,18
2023-09-19T13:15:36.528Z,18.1
2023-09-19T13:16:35.818Z,18.2
2023-09-19T13:17:35.696Z,18.3
2023-09-19T13:18:35.734Z,18.3
2023-09-19T13:19:38.270Z,18.5
2023-09-19T13:20:35.714Z,18.6
2023-09-19T13:21:37.064Z,18.7
2023-09-19T13:22:35.728Z,18.8
2023-09-19T13:23:37.657Z,19
2023-09-19T13:24:35.701Z,19.1
2023-09-19T13:25:46.490Z,19.1
2023-09-19T13:26:41.543Z,19.2
2023-09-19T13:27:35.756Z,19.3
2023-09-19T13:28:35.911Z,19.4
2023-09-19T13:29:36.796Z,19.5
2023-09-19T13:30:37.279Z,19.6
2023-09-19T13:31:35.701Z,19.6
2023-09-19T13:32:37.356Z,19.6
2023-09-19T13:33:35.606Z,19.6
2023-09-19T13:34:35.660Z,19.6
2023-09-19T13:35:36.824Z,19.6
2023-09-19T13:36:36.036Z,19.7
2023-09-19T13:37:37.417Z,19.7
2023-09-19T13:38:35.884Z,19.8
2023-09-19T13:39:35.636Z,19.9
2023-09-19T13:40:37.434Z,19.9
2023-09-19T13:41:36.989Z,19.9
2023-09-19T13:42:35.740Z,19.9
2023-09-19T13:43:35.640Z,19.9
2023-09-19T13:44:35.746Z,19.9
2023-09-19T13:45:35.687Z,19.9
2023-09-19T13:46:35.718Z,20
2023-09-19T13:47:35.674Z,20
2023-09-19T13:48:36.360Z,20
2023-09-19T13:49:36.847Z,20.1
2023-09-19T13:51:35.650Z,20.1
2023-09-19T13:52:35.644Z,20.3
2023-09-19T13:53:35.626Z,20.3
2023-09-19T13:54:35.686Z,20.4
2023-09-19T13:55:35.796Z,20.4
2023-09-19T13:56:35.832Z,20.5
2023-09-19T13:57:35.756Z,20.5
2023-09-19T13:58:40.299Z,20.5
2023-09-19T13:59:36.715Z,20.6
2023-09-19T14:01:36.903Z,20.6
2023-09-19T14:02:35.801Z,20.6
2023-09-19T14:03:35.827Z,20.7
2023-09-19T14:04:50.096Z,20.8
2023-09-19T14:05:37.039Z,20.9
2023-09-19T14:06:35.673Z,21
2023-09-19T14:07:38.538Z,21.1
2023-09-19T14:08:46.022Z,21.1
2023-09-19T14:09:37.150Z,21.1
2023-09-19T14:10:35.896Z,21.1
2023-09-19T14:11:36.375Z,21
2023-09-19T14:12:37.253Z,21
2023-09-19T14:13:35.648Z,21.1
2023-09-19T14:14:35.848Z,21.1
2023-09-19T14:15:35.604Z,21.1
2023-09-19T14:16:35.619Z,21.1
2023-09-19T14:17:39.959Z,21.1
2023-09-19T14:18:35.960Z,21.1
2023-09-19T14:19:55.634Z,21.2
2023-09-19T14:20:35.579Z,21.2
2023-09-19T14:21:35.674Z,21.2
2023-09-19T14:22:50.917Z,21.3
2023-09-19T14:23:37.658Z,21.3
2023-09-19T14:24:38.308Z,21.3
2023-09-19T14:25:35.691Z,21.3
2023-09-19T14:26:35.897Z,21.3
2023-09-19T14:27:35.601Z,21.4
2023-09-19T14:28:35.692Z,21.3
2023-09-19T14:29:36.987Z,21.3
2023-09-19T14:30:37.990Z,21.3
2023-09-19T14:31:37.604Z,21.4
2023-09-19T14:32:35.697Z,21.5
2023-09-19T14:33:36.117Z,21.5
2023-09-19T14:34:26.804Z,21.5
2023-09-19T14:34:54.644Z,21.5
2023-09-19T14:35:36.958Z,21.6
2023-09-19T14:36:45.865Z,21.6
2023-09-19T14:37:36.687Z,21.6
2023-09-19T14:38:35.989Z,21.6
2023-09-19T14:39:37.189Z,21.6
2023-09-19T14:41:41.717Z,21.6
2023-09-19T14:42:36.571Z,21.6
2023-09-19T14:43:35.676Z,21.7
2023-09-19T14:44:35.570Z,21.7
2023-09-19T14:45:35.693Z,21.7
2023-09-19T14:46:35.841Z,21.7
2023-09-19T14:47:35.653Z,21.7
2023-09-19T14:48:37.192Z,21.7
2023-09-19T14:49:35.903Z,21.7
2023-09-19T14:50:36.958Z,21.7
2023-09-19T14:51:35.906Z,21.7
2023-09-19T14:52:35.617Z,21.7